Time;durP1;ratioP1;P1;durP2;ratioP2;P2;SDS_P1;SDS_P2;PMS_P1;PMS_P2;Temp;Humidity;BMP_temperature;BMP_pressure;BME280_temperature;BME280_humidity;BME280_pressure;Samples;Min_cycle;Max_cycle;Signal;HPM_P1;HPM_P2
2020/12/11 00:00:56;;;;;;;33.95;18.02;;;0.80;99.90;;;;;;5070195;28;20032;-69
2020/12/11 00:03:22;;;;;;;36.53;17.25;;;0.80;99.90;;;;;;5063847;28;20025;-69
2020/12/11 00:05:47;;;;;;;33.20;17.35;;;0.80;99.90;;;;;;5067551;28;20350;-69
2020/12/11 00:08:13;;;;;;;30.05;16.77;;;0.80;99.90;;;;;;5065249;28;20188;-69
2020/12/11 00:10:39;;;;;;;30.17;16.70;;;0.80;99.90;;;;;;5063256;28;20115;-69
2020/12/11 00:13:04;;;;;;;31.38;16.38;;;0.90;99.90;;;;;;5063252;28;20024;-69
2020/12/11 00:15:30;;;;;;;33.28;16.30;;;0.80;99.90;;;;;;5066769;28;20032;-69
2020/12/11 00:17:55;;;;;;;32.45;16.23;;;0.80;99.90;;;;;;5066260;28;20365;-69
2020/12/11 00:20:21;;;;;;;32.80;17.75;;;0.80;99.90;;;;;;5069260;28;20465;-69
2020/12/11 00:22:46;;;;;;;31.10;17.60;;;0.90;99.90;;;;;;5063856;28;20488;-69
2020/12/11 00:25:12;;;;;;;29.95;16.70;;;0.90;99.90;;;;;;5061765;28;20075;-68
2020/12/11 00:27:37;;;;;;;34.50;17.10;;;0.90;99.90;;;;;;5061523;28;20028;-69
2020/12/11 00:30:04;;;;;;;34.03;16.83;;;0.90;99.90;;;;;;5065365;28;20560;-69
2020/12/11 00:32:29;;;;;;;36.13;16.63;;;0.90;99.90;;;;;;5056624;28;20025;-69
2020/12/11 00:34:55;;;;;;;29.65;16.25;;;0.90;99.90;;;;;;5064663;28;20021;-69
2020/12/11 00:37:21;;;;;;;35.50;17.15;;;1.00;99.90;;;;;;5059689;28;20033;-70
2020/12/11 00:39:46;;;;;;;30.58;16.38;;;1.00;99.90;;;;;;5061879;28;20076;-70
2020/12/11 00:42:16;;;;;;;34.53;17.45;;;0.90;99.90;;;;;;5063510;28;20420;-69
2020/12/11 00:44:42;;;;;;;37.43;16.87;;;1.00;99.90;;;;;;5062193;28;20029;-70
2020/12/11 00:47:07;;;;;;;32.60;17.23;;;1.00;99.90;;;;;;5061167;28;20282;-69
2020/12/11 00:49:33;;;;;;;38.70;19.00;;;1.00;99.90;;;;;;5062972;28;20056;-70
2020/12/11 00:51:58;;;;;;;33.22;16.58;;;1.00;99.90;;;;;;5070408;28;20021;-70
2020/12/11 00:54:24;;;;;;;28.38;15.93;;;1.00;99.90;;;;;;5069313;28;20058;-69
2020/12/11 00:56:50;;;;;;;32.13;16.02;;;1.00;99.90;;;;;;5062651;28;20109;-69
2020/12/11 00:59:15;;;;;;;30.83;16.70;;;1.00;99.90;;;;;;5065972;28;20064;-69
2020/12/11 01:01:41;;;;;;;32.50;16.95;;;1.00;99.90;;;;;;5062682;28;20162;-69
2020/12/11 01:04:07;;;;;;;30.85;17.63;;;1.00;99.90;;;;;;5073356;28;20028;-69
2020/12/11 01:06:32;;;;;;;27.63;16.42;;;1.00;99.90;;;;;;5064404;28;20056;-69
2020/12/11 01:08:58;;;;;;;32.20;16.38;;;1.00;99.90;;;;;;5068004;28;20033;-70
2020/12/11 01:11:24;;;;;;;27.95;16.63;;;0.90;99.90;;;;;;5067165;28;20036;-69
2020/12/11 01:13:49;;;;;;;28.15;16.02;;;1.00;99.90;;;;;;5070904;28;20044;-69
2020/12/11 01:16:15;;;;;;;32.33;17.50;;;1.00;99.90;;;;;;5069896;28;20436;-69
2020/12/11 01:18:40;;;;;;;36.30;16.30;;;1.00;99.90;;;;;;5065497;28;20033;-69
2020/12/11 01:21:06;;;;;;;26.48;16.30;;;1.00;99.90;;;;;;5064442;28;20040;-69
2020/12/11 01:23:32;;;;;;;27.15;16.30;;;1.00;99.90;;;;;;5069575;28;20104;-69
2020/12/11 01:25:57;;;;;;;26.48;15.35;;;1.00;99.90;;;;;;5060059;28;20073;-69
2020/12/11 01:28:23;;;;;;;32.70;15.20;;;1.00;99.90;;;;;;5066155;28;20020;-69
2020/12/11 01:30:48;;;;;;;27.38;16.10;;;1.00;99.90;;;;;;5064013;28;20449;-69
2020/12/11 01:33:14;;;;;;;30.77;17.27;;;1.00;99.90;;;;;;5063710;28;20051;-69
2020/12/11 01:35:39;;;;;;;33.42;17.33;;;0.90;99.90;;;;;;5067465;28;20472;-69
2020/12/11 01:38:05;;;;;;;26.08;15.65;;;0.90;99.90;;;;;;5070444;28;20095;-69
2020/12/11 01:40:35;;;;;;;30.85;16.23;;;0.80;99.90;;;;;;5065831;28;20147;-69
2020/12/11 01:43:00;;;;;;;28.60;16.15;;;0.70;99.90;;;;;;5060589;28;20136;-69
2020/12/11 01:45:26;;;;;;;28.27;16.25;;;0.70;99.90;;;;;;5058804;28;20032;-69
2020/12/11 01:47:52;;;;;;;27.88;15.50;;;0.70;99.90;;;;;;5064040;28;20478;-69
2020/12/11 01:50:20;;;;;;;27.25;15.82;;;0.70;99.90;;;;;;5066957;28;20028;-69
2020/12/11 01:52:47;;;;;;;28.77;16.30;;;0.60;99.90;;;;;;5064709;28;20028;-69
2020/12/11 01:55:14;;;;;;;28.75;16.13;;;0.60;99.90;;;;;;5066068;28;20036;-70
2020/12/11 01:57:49;;;;;;;33.83;16.38;;;0.50;99.90;;;;;;5065768;28;20037;-70
2020/12/11 02:00:19;;;;;;;27.23;15.38;;;0.60;99.90;;;;;;5066653;28;20072;-69
2020/12/11 02:02:46;;;;;;;27.67;16.50;;;0.50;99.90;;;;;;5058245;28;20033;-69
2020/12/11 02:05:12;;;;;;;27.38;15.57;;;0.50;99.90;;;;;;5067321;28;20075;-69
2020/12/11 02:07:38;;;;;;;29.50;16.40;;;0.40;99.90;;;;;;5060845;28;20433;-69
2020/12/11 02:10:05;;;;;;;33.05;15.80;;;0.50;99.90;;;;;;5060100;28;20025;-69
2020/12/11 02:12:31;;;;;;;26.23;14.95;;;0.40;99.90;;;;;;5069568;28;20033;-70
2020/12/11 02:14:57;;;;;;;29.95;16.95;;;0.40;99.90;;;;;;5065470;28;20039;-69
2020/12/11 02:17:26;;;;;;;29.00;16.42;;;0.40;99.90;;;;;;5063698;28;20028;-69
2020/12/11 02:19:56;;;;;;;27.70;15.55;;;0.40;99.90;;;;;;5061123;28;20032;-69
2020/12/11 02:22:22;;;;;;;30.20;17.15;;;0.40;99.90;;;;;;5061085;28;20035;-69
2020/12/11 02:24:49;;;;;;;26.70;15.13;;;0.40;99.90;;;;;;5076967;28;20037;-69
2020/12/11 02:27:15;;;;;;;29.00;14.63;;;0.40;99.90;;;;;;5058025;28;20381;-69
2020/12/11 02:29:40;;;;;;;29.05;15.02;;;0.30;99.90;;;;;;5058056;28;20040;-69
2020/12/11 02:32:06;;;;;;;31.77;16.88;;;0.40;99.90;;;;;;5060590;28;20023;-69
2020/12/11 02:34:31;;;;;;;33.00;16.77;;;0.30;99.90;;;;;;5059976;28;20024;-69
2020/12/11 02:37:03;;;;;;;28.90;16.27;;;0.40;99.90;;;;;;5069750;28;20021;-69
2020/12/11 02:39:29;;;;;;;27.60;16.13;;;0.40;99.90;;;;;;5065230;28;20033;-69
2020/12/11 02:41:54;;;;;;;24.33;14.73;;;0.30;99.90;;;;;;5062879;28;20033;-70
2020/12/11 02:44:20;;;;;;;24.75;15.38;;;0.40;99.90;;;;;;5055705;28;20035;-69
2020/12/11 02:46:45;;;;;;;27.40;15.80;;;0.30;99.90;;;;;;5058128;28;20050;-70
2020/12/11 02:49:11;;;;;;;28.80;14.85;;;0.30;99.90;;;;;;5057241;28;20028;-69
2020/12/11 02:51:36;;;;;;;25.98;15.57;;;0.30;99.90;;;;;;5064099;28;20056;-69
2020/12/11 02:54:02;;;;;;;26.73;15.10;;;0.40;99.90;;;;;;5065482;28;20028;-69
2020/12/11 02:56:27;;;;;;;28.05;14.80;;;0.30;99.90;;;;;;5065870;28;20050;-69
2020/12/11 02:58:53;;;;;;;26.80;14.65;;;0.30;99.90;;;;;;5061179;28;20452;-70
2020/12/11 03:01:19;;;;;;;25.08;15.00;;;0.40;99.90;;;;;;5062971;28;20031;-69
2020/12/11 03:03:44;;;;;;;28.15;15.23;;;0.30;99.90;;;;;;5064493;28;20029;-70
2020/12/11 03:06:10;;;;;;;28.73;15.43;;;0.30;99.90;;;;;;5058146;28;20028;-68
2020/12/11 03:08:35;;;;;;;27.92;15.52;;;0.30;99.90;;;;;;5060322;28;20530;-68
2020/12/11 03:11:01;;;;;;;25.98;15.50;;;0.30;99.90;;;;;;5056321;28;20453;-68
2020/12/11 03:13:26;;;;;;;27.10;15.25;;;0.40;99.90;;;;;;5061924;28;20444;-68
2020/12/11 03:15:52;;;;;;;28.83;16.10;;;0.50;99.90;;;;;;5060730;28;20037;-69
2020/12/11 03:18:18;;;;;;;25.63;14.93;;;0.50;99.90;;;;;;5061661;28;20031;-69
2020/12/11 03:20:43;;;;;;;24.77;15.95;;;0.60;99.90;;;;;;5063422;28;20473;-69
2020/12/11 03:23:09;;;;;;;25.40;15.68;;;0.70;99.90;;;;;;5063950;28;20021;-69
2020/12/11 03:25:35;;;;;;;27.05;15.70;;;0.70;99.90;;;;;;5062065;28;20451;-69
2020/12/11 03:28:01;;;;;;;27.98;18.02;;;0.80;99.90;;;;;;5057767;28;20024;-69
2020/12/11 03:30:27;;;;;;;25.92;14.93;;;0.90;99.90;;;;;;5062888;28;20035;-70
2020/12/11 03:32:53;;;;;;;24.50;14.32;;;0.90;99.90;;;;;;5057055;28;20113;-69
2020/12/11 03:35:19;;;;;;;24.85;15.23;;;1.10;99.90;;;;;;5063976;28;20123;-69
2020/12/11 03:37:44;;;;;;;23.65;14.65;;;1.00;99.90;;;;;;5076950;28;20047;-68
2020/12/11 03:40:10;;;;;;;29.10;14.35;;;1.00;99.90;;;;;;5065292;28;20030;-69
2020/12/11 03:42:35;;;;;;;25.30;15.98;;;1.00;99.90;;;;;;5062731;28;20017;-70
2020/12/11 03:45:01;;;;;;;22.98;15.07;;;1.00;99.90;;;;;;5064442;28;20025;-69
2020/12/11 03:47:30;;;;;;;23.10;14.98;;;1.10;99.90;;;;;;5057841;28;20361;-70
2020/12/11 03:49:55;;;;;;;26.35;14.75;;;1.10;99.90;;;;;;5059213;28;20049;-70
2020/12/11 03:52:21;;;;;;;25.75;14.82;;;1.10;99.90;;;;;;5059981;28;20485;-69
2020/12/11 03:54:46;;;;;;;24.02;15.00;;;1.10;99.90;;;;;;5053632;28;20032;-68
2020/12/11 03:57:12;;;;;;;24.55;14.68;;;1.10;99.90;;;;;;5062462;28;20029;-69
2020/12/11 03:59:37;;;;;;;20.23;13.98;;;1.10;99.90;;;;;;5059857;28;20043;-69
2020/12/11 04:02:03;;;;;;;22.23;14.70;;;1.20;99.90;;;;;;5058891;28;20561;-69
2020/12/11 04:04:28;;;;;;;24.92;14.73;;;1.20;99.90;;;;;;5059834;28;20029;-69
2020/12/11 04:06:54;;;;;;;23.25;14.77;;;1.20;99.90;;;;;;5058500;28;20028;-69
2020/12/11 04:09:20;;;;;;;18.80;13.52;;;1.10;99.90;;;;;;5064265;28;20047;-68
2020/12/11 04:11:45;;;;;;;21.45;13.52;;;1.10;99.90;;;;;;5060789;28;22188;-69
2020/12/11 04:14:11;;;;;;;25.33;15.05;;;1.10;99.90;;;;;;5063792;28;20116;-68
2020/12/11 04:16:36;;;;;;;26.75;14.00;;;1.10;99.90;;;;;;5071041;28;20029;-68
2020/12/11 04:19:02;;;;;;;23.48;15.43;;;1.00;99.90;;;;;;5064323;28;20049;-68
2020/12/11 04:21:28;;;;;;;23.35;14.60;;;1.00;99.90;;;;;;5066200;28;20477;-68
2020/12/11 04:23:53;;;;;;;26.88;14.60;;;1.00;99.90;;;;;;5071495;28;20024;-69
2020/12/11 04:26:19;;;;;;;27.35;16.70;;;0.90;99.90;;;;;;5062135;28;20128;-68
2020/12/11 04:28:44;;;;;;;29.40;16.50;;;1.00;99.90;;;;;;5056263;28;20029;-68
2020/12/11 04:31:10;;;;;;;23.35;15.38;;;0.90;99.90;;;;;;5060968;28;20044;-69
2020/12/11 04:33:35;;;;;;;26.45;15.40;;;0.90;99.90;;;;;;5067535;28;20021;-68
2020/12/11 04:36:01;;;;;;;24.40;15.00;;;1.00;99.90;;;;;;5072430;28;20082;-68
2020/12/11 04:38:27;;;;;;;24.73;15.50;;;1.10;99.90;;;;;;5068041;28;20461;-68
2020/12/11 04:41:00;;;;;;;26.52;15.63;;;1.10;99.90;;;;;;5067746;28;20037;-68
2020/12/11 04:43:26;;;;;;;21.52;13.88;;;1.20;99.90;;;;;;5058960;28;20029;-68
2020/12/11 04:45:54;;;;;;;21.45;14.07;;;1.20;99.90;;;;;;5061231;28;20426;-69
2020/12/11 04:48:19;;;;;;;25.30;15.10;;;1.30;99.90;;;;;;5067103;28;20024;-68
2020/12/11 04:50:45;;;;;;;21.70;14.95;;;1.30;99.90;;;;;;5071886;28;20430;-68
2020/12/11 04:53:15;;;;;;;26.42;14.80;;;1.40;99.90;;;;;;5070937;28;20020;-68
2020/12/11 04:55:43;;;;;;;24.90;15.38;;;1.40;99.90;;;;;;5060067;28;20028;-69
2020/12/11 04:58:10;;;;;;;23.17;14.68;;;1.50;99.90;;;;;;5067284;28;20052;-68
2020/12/11 05:00:36;;;;;;;23.70;14.27;;;1.50;99.90;;;;;;5067901;28;20160;-68
2020/12/11 05:03:02;;;;;;;24.27;14.57;;;1.50;99.90;;;;;;5065723;28;20025;-68
2020/12/11 05:05:28;;;;;;;22.13;14.10;;;1.50;99.90;;;;;;5069589;28;20655;-68
2020/12/11 05:07:53;;;;;;;22.00;13.48;;;1.50;99.90;;;;;;5067042;28;20032;-67
2020/12/11 05:10:19;;;;;;;22.00;13.70;;;1.50;99.90;;;;;;5060624;28;20024;-69
2020/12/11 05:12:44;;;;;;;25.80;14.30;;;1.60;99.90;;;;;;5060002;28;20025;-69
2020/12/11 05:15:12;;;;;;;22.20;14.10;;;1.60;99.90;;;;;;5055539;28;20029;-68
2020/12/11 05:17:40;;;;;;;23.92;13.98;;;1.60;99.90;;;;;;5060807;28;20028;-69
2020/12/11 05:20:10;;;;;;;28.83;15.13;;;1.60;99.90;;;;;;5064021;28;20356;-69
2020/12/11 05:22:37;;;;;;;24.23;13.82;;;1.60;99.90;;;;;;5066946;28;20039;-69
2020/12/11 05:25:05;;;;;;;21.40;14.00;;;1.60;99.90;;;;;;5064744;28;20484;-69
2020/12/11 05:27:38;;;;;;;24.63;15.00;;;1.70;99.90;;;;;;5062146;28;20056;-68
2020/12/11 05:30:13;;;;;;;22.35;14.43;;;1.60;99.90;;;;;;5063803;28;20032;-69
2020/12/11 05:32:44;;;;;;;22.80;14.43;;;1.70;99.90;;;;;;5067042;28;20028;-69
2020/12/11 05:35:18;;;;;;;25.05;15.13;;;1.60;99.90;;;;;;5068169;28;20039;-69
2020/12/11 05:37:49;;;;;;;22.70;14.60;;;1.70;99.90;;;;;;5060153;28;20250;-69
2020/12/11 05:40:26;;;;;;;22.38;13.57;;;1.70;99.90;;;;;;5068501;28;20480;-69
2020/12/11 05:43:12;;;;;;;22.83;13.27;;;1.70;99.90;;;;;;5066768;28;20123;-69
2020/12/11 05:45:55;;;;;;;21.83;12.88;;;1.80;99.90;;;;;;5063742;28;20024;-70
2020/12/11 05:48:26;;;;;;;19.25;13.30;;;1.80;99.90;;;;;;5062456;28;20036;-67
2020/12/11 05:50:52;;;;;;;25.85;13.82;;;1.80;99.90;;;;;;5055989;28;20025;-67
2020/12/11 05:53:18;;;;;;;21.67;13.57;;;1.70;99.90;;;;;;5065900;28;20116;-68
2020/12/11 05:55:45;;;;;;;26.10;14.43;;;1.70;99.90;;;;;;5067636;28;20115;-68
2020/12/11 05:58:11;;;;;;;22.95;13.20;;;1.80;99.90;;;;;;5062856;28;20024;-68
2020/12/11 06:00:39;;;;;;;21.70;13.70;;;1.70;99.90;;;;;;5067267;28;20146;-69
2020/12/11 06:03:06;;;;;;;29.17;14.73;;;1.80;99.90;;;;;;5063414;28;20032;-69
2020/12/11 06:05:36;;;;;;;18.83;13.40;;;1.80;99.90;;;;;;5068308;28;20097;-68
2020/12/11 06:08:11;;;;;;;20.48;14.38;;;1.80;99.90;;;;;;5058441;28;20089;-68
2020/12/11 06:10:39;;;;;;;25.10;14.10;;;1.80;99.90;;;;;;5063038;28;20458;-68
2020/12/11 06:13:05;;;;;;;18.77;13.00;;;1.80;99.90;;;;;;5066892;28;20024;-68
2020/12/11 06:15:36;;;;;;;22.45;14.45;;;1.80;99.90;;;;;;5073038;28;20607;-68
2020/12/11 06:18:23;;;;;;;21.55;14.63;;;1.90;99.90;;;;;;5083258;28;20121;-68
2020/12/11 06:20:53;;;;;;;20.73;13.00;;;1.90;99.90;;;;;;5084679;28;20077;-69
2020/12/11 06:23:27;;;;;;;20.85;12.98;;;1.90;99.90;;;;;;5080300;28;20060;-68
2020/12/11 06:25:58;;;;;;;22.20;14.13;;;1.90;99.90;;;;;;5079781;28;20048;-68
2020/12/11 06:28:35;;;;;;;21.15;13.30;;;1.90;99.90;;;;;;5082806;28;20024;-67
2020/12/11 06:31:03;;;;;;;21.95;14.57;;;1.90;99.90;;;;;;5079879;28;20028;-68
2020/12/11 06:33:33;;;;;;;22.25;14.65;;;2.00;99.90;;;;;;5079623;28;20021;-68
2020/12/11 06:36:00;;;;;;;23.08;14.23;;;2.00;99.90;;;;;;5084936;28;20078;-68
2020/12/11 06:38:52;;;;;;;19.83;13.27;;;2.00;99.90;;;;;;5073001;28;20033;-68
2020/12/11 06:41:27;;;;;;;21.08;12.55;;;2.00;99.90;;;;;;5085428;28;20036;-69
2020/12/11 06:43:56;;;;;;;24.13;13.50;;;2.00;99.90;;;;;;5079018;28;20033;-69
2020/12/11 06:46:27;;;;;;;23.13;14.48;;;2.00;99.90;;;;;;5073156;28;20116;-69
2020/12/11 06:49:17;;;;;;;23.40;14.70;;;2.10;99.90;;;;;;5077198;28;20135;-69
2020/12/11 06:51:42;;;;;;;22.30;13.50;;;2.10;99.90;;;;;;5082015;28;20089;-69
2020/12/11 06:54:09;;;;;;;23.38;13.45;;;2.10;99.90;;;;;;5081372;28;20761;-69
2020/12/11 06:56:43;;;;;;;21.70;13.63;;;2.10;99.90;;;;;;5074554;28;20036;-69
2020/12/11 06:59:19;;;;;;;19.08;12.40;;;2.10;99.90;;;;;;5081324;28;20085;-69
2020/12/11 07:01:45;;;;;;;17.90;12.30;;;2.10;99.90;;;;;;5086691;28;20047;-68
2020/12/11 07:04:11;;;;;;;18.75;13.30;;;2.20;99.90;;;;;;5068566;28;20016;-68
2020/12/11 07:06:36;;;;;;;20.20;12.63;;;2.20;99.90;;;;;;5072182;28;20601;-68
2020/12/11 07:09:03;;;;;;;20.17;13.38;;;2.20;99.90;;;;;;5074421;28;20090;-68
2020/12/11 07:11:29;;;;;;;21.83;13.30;;;2.20;99.90;;;;;;5075567;28;20094;-70
2020/12/11 07:13:55;;;;;;;21.67;13.25;;;2.20;99.90;;;;;;5078286;28;20111;-68
2020/12/11 07:16:21;;;;;;;21.92;13.98;;;2.20;99.90;;;;;;5083199;28;20016;-68
2020/12/11 07:18:47;;;;;;;18.48;12.82;;;2.20;99.90;;;;;;5087205;28;20065;-68
2020/12/11 07:21:13;;;;;;;20.85;13.50;;;2.20;99.90;;;;;;5081411;28;20064;-67
2020/12/11 07:23:38;;;;;;;23.02;13.02;;;2.20;99.90;;;;;;5078917;28;20155;-68
2020/12/11 07:26:05;;;;;;;20.63;13.77;;;2.20;99.90;;;;;;5079185;28;20131;-69
2020/12/11 07:28:31;;;;;;;19.77;13.18;;;2.20;99.90;;;;;;5074399;28;20093;-68
2020/12/11 07:30:56;;;;;;;20.60;13.00;;;2.20;99.90;;;;;;5075086;28;20112;-68
2020/12/11 07:33:28;;;;;;;18.27;12.50;;;2.20;99.90;;;;;;5088447;28;20103;-68
2020/12/11 07:35:53;;;;;;;18.33;12.57;;;2.30;99.90;;;;;;5076164;28;20103;-69
2020/12/11 07:38:26;;;;;;;22.23;13.68;;;2.30;99.90;;;;;;5073504;28;20575;-67
2020/12/11 07:40:54;;;;;;;23.00;13.65;;;2.30;99.90;;;;;;5085123;28;20028;-68
2020/12/11 07:43:20;;;;;;;17.42;11.93;;;2.40;99.90;;;;;;5075213;28;20835;-68
2020/12/11 07:45:47;;;;;;;23.67;12.20;;;2.40;99.90;;;;;;5084881;28;20103;-68
2020/12/11 07:48:12;;;;;;;20.40;13.68;;;2.40;99.90;;;;;;5082445;28;20096;-68
2020/12/11 07:50:38;;;;;;;20.92;12.32;;;2.40;99.90;;;;;;5078244;28;20055;-68
2020/12/11 07:53:10;;;;;;;23.15;13.45;;;2.50;99.90;;;;;;5077118;28;20039;-68
2020/12/11 07:55:36;;;;;;;20.33;13.00;;;2.50;99.90;;;;;;5077133;28;20111;-68
2020/12/11 07:58:03;;;;;;;23.48;13.68;;;2.50;99.90;;;;;;5084262;28;20467;-67
2020/12/11 08:00:30;;;;;;;22.67;12.23;;;2.50;99.90;;;;;;5076722;28;20036;-67
2020/12/11 08:02:57;;;;;;;18.33;11.82;;;2.50;99.90;;;;;;5075576;28;20017;-68
2020/12/11 08:05:25;;;;;;;19.00;12.95;;;2.60;99.90;;;;;;5081847;28;20043;-68
2020/12/11 08:07:54;;;;;;;19.58;13.00;;;2.50;99.90;;;;;;5080326;28;20146;-67
2020/12/11 08:10:22;;;;;;;20.52;13.55;;;2.60;99.90;;;;;;5079447;28;20123;-67
2020/12/11 08:12:49;;;;;;;16.38;12.18;;;2.60;99.90;;;;;;5077489;28;20033;-69
2020/12/11 08:15:34;;;;;;;18.65;12.43;;;2.60;99.90;;;;;;5078674;28;20506;-67
2020/12/11 08:18:28;;;;;;;20.17;12.50;;;2.60;99.90;;;;;;5073119;28;20029;-68
2020/12/11 08:20:59;;;;;;;27.15;13.02;;;2.70;99.90;;;;;;5052201;28;20064;-69
2020/12/11 08:23:39;;;;;;;20.58;13.15;;;2.70;99.90;;;;;;5081193;28;20036;-67
2020/12/11 08:26:20;;;;;;;19.67;12.18;;;2.70;99.90;;;;;;5070620;28;20476;-67
2020/12/11 08:28:46;;;;;;;;;;;2.70;99.90;;;;;;5061867;28;20033;-68
2020/12/11 08:31:14;;;;;;;19.77;11.93;;;2.70;99.90;;;;;;5060786;28;19909;-68
2020/12/11 08:33:40;;;;;;;16.77;11.82;;;2.70;99.90;;;;;;5052828;28;20025;-69
2020/12/11 08:36:16;;;;;;;18.42;12.73;;;2.70;99.90;;;;;;5066088;28;20032;-68
2020/12/11 08:38:41;;;;;;;18.17;12.43;;;2.70;99.90;;;;;;5067152;28;20518;-67
2020/12/11 08:41:15;;;;;;;21.08;13.75;;;2.70;99.90;;;;;;5070542;28;20032;-67
2020/12/11 08:43:44;;;;;;;20.42;13.18;;;2.70;99.90;;;;;;5066987;28;20029;-69
2020/12/11 08:46:33;;;;;;;21.20;13.73;;;2.80;99.90;;;;;;5058473;28;20438;-69
2020/12/11 08:49:15;;;;;;;20.50;12.88;;;2.80;99.90;;;;;;5057722;28;20040;-70
2020/12/11 08:51:41;;;;;;;19.67;12.43;;;2.80;99.90;;;;;;5069751;28;20033;-68
2020/12/11 08:54:08;;;;;;;19.33;12.95;;;2.80;99.90;;;;;;5063507;28;20025;-70
2020/12/11 08:56:34;;;;;;;21.35;13.88;;;2.90;99.90;;;;;;5055301;28;20025;-68
2020/12/11 08:59:00;;;;;;;18.88;13.35;;;2.90;99.90;;;;;;5060518;28;20031;-70
2020/12/11 09:01:25;;;;;;;20.50;13.48;;;2.90;99.90;;;;;;5062983;28;20444;-69
2020/12/11 09:03:51;;;;;;;18.90;12.05;;;2.90;99.90;;;;;;5070406;28;20021;-69
2020/12/11 09:06:16;;;;;;;18.35;12.43;;;2.90;99.90;;;;;;5055902;28;20063;-68
2020/12/11 09:08:42;;;;;;;22.02;13.23;;;2.90;99.90;;;;;;5071821;28;20016;-69
2020/12/11 09:11:07;;;;;;;19.70;12.93;;;3.00;99.90;;;;;;5084192;28;20035;-69
2020/12/11 09:13:33;;;;;;;17.88;11.73;;;3.00;99.90;;;;;;5075974;28;20024;-69
2020/12/11 09:15:58;;;;;;;17.35;11.32;;;3.00;99.90;;;;;;5080698;28;20032;-68
2020/12/11 09:18:24;;;;;;;18.15;12.80;;;3.10;99.90;;;;;;5062238;28;20033;-69
2020/12/11 09:20:50;;;;;;;21.70;12.57;;;3.10;99.90;;;;;;5091688;28;20056;-69
2020/12/11 09:23:15;;;;;;;20.30;12.40;;;3.10;99.90;;;;;;5066695;28;20362;-69
2020/12/11 09:25:41;;;;;;;22.08;12.38;;;3.20;99.90;;;;;;5071262;28;20041;-69
2020/12/11 09:28:16;;;;;;;17.58;12.57;;;3.20;99.90;;;;;;5073482;28;20045;-69
2020/12/11 09:30:43;;;;;;;16.80;11.60;;;3.30;99.90;;;;;;5055225;28;20025;-69
2020/12/11 09:33:15;;;;;;;17.60;11.73;;;3.30;99.90;;;;;;5077382;28;20070;-68
2020/12/11 09:35:40;;;;;;;15.25;11.35;;;3.40;99.90;;;;;;5083711;28;20043;-69
2020/12/11 09:38:06;;;;;;;16.98;11.60;;;3.40;99.90;;;;;;5070751;28;20024;-68
2020/12/11 09:40:58;;;;;;;16.33;12.07;;;3.40;99.90;;;;;;5069272;28;20250;-68
2020/12/11 09:46:43;;;;;;;20.17;12.40;;;3.40;99.90;;;;;;5039871;28;20044;-69
2020/12/11 09:49:16;;;;;;;16.67;11.82;;;3.50;99.90;;;;;;5047791;28;20103;-68
2020/12/11 09:51:58;;;;;;;16.75;11.02;;;3.50;99.90;;;;;;5067380;28;20036;-68
2020/12/11 09:54:31;;;;;;;15.43;11.60;;;3.50;99.90;;;;;;5076112;28;20396;-68
2020/12/11 09:56:56;;;;;;;16.67;10.93;;;3.50;99.90;;;;;;5078901;28;20146;-68
2020/12/11 09:59:32;;;;;;;15.98;11.57;;;3.50;99.90;;;;;;5080861;28;20116;-69
2020/12/11 10:04:47;;;;;;;15.85;10.95;;;3.50;99.90;;;;;;5068673;28;20042;-68
2020/12/11 10:07:12;;;;;;;15.48;11.50;;;3.50;99.90;;;;;;5057290;28;20109;-67
2020/12/11 10:09:38;;;;;;;19.27;11.27;;;3.50;99.90;;;;;;5057053;28;20037;-67
2020/12/11 10:12:04;;;;;;;21.92;11.35;;;3.60;99.90;;;;;;5062151;28;20033;-67
2020/12/11 10:14:35;;;;;;;16.85;11.23;;;3.60;99.90;;;;;;5064707;28;20038;-68
2020/12/11 10:17:01;;;;;;;20.33;12.23;;;3.70;99.90;;;;;;5076887;28;20441;-69
2020/12/11 10:19:26;;;;;;;17.98;12.48;;;3.70;99.90;;;;;;5065764;28;20127;-68
2020/12/11 10:21:53;;;;;;;18.92;12.05;;;3.70;99.90;;;;;;5073527;28;20061;-68
2020/12/11 10:24:20;;;;;;;16.63;12.50;;;3.70;99.90;;;;;;5082503;28;20052;-68
2020/12/11 10:26:46;;;;;;;18.13;11.70;;;3.60;99.90;;;;;;5083264;28;20052;-68
2020/12/11 10:29:12;;;;;;;18.90;12.50;;;3.70;99.90;;;;;;5078115;28;20021;-69
2020/12/11 10:31:42;;;;;;;18.02;12.80;;;3.70;99.90;;;;;;5081602;28;20476;-68
2020/12/11 10:34:19;;;;;;;18.85;12.45;;;3.70;99.90;;;;;;5077110;28;20499;-68
2020/12/11 10:36:45;;;;;;;19.33;12.13;;;3.70;99.90;;;;;;5079179;28;20051;-68
2020/12/11 10:39:11;;;;;;;16.48;12.05;;;3.70;99.90;;;;;;5065390;28;20076;-68
2020/12/11 10:41:36;;;;;;;17.67;12.88;;;3.60;99.90;;;;;;5090083;28;20028;-67
2020/12/11 10:44:06;;;;;;;22.88;13.45;;;3.70;99.90;;;;;;5083005;28;20372;-68
2020/12/11 10:46:31;;;;;;;21.98;12.93;;;3.70;99.90;;;;;;5087077;28;20021;-68
2020/12/11 10:48:57;;;;;;;17.60;12.90;;;3.70;99.90;;;;;;5088631;28;20022;-69
2020/12/11 10:51:23;;;;;;;21.80;12.50;;;3.70;99.90;;;;;;5089027;28;20039;-68
2020/12/11 10:53:49;;;;;;;18.23;13.25;;;3.70;99.90;;;;;;5085495;28;20050;-68
2020/12/11 10:56:15;;;;;;;19.48;12.05;;;3.70;99.90;;;;;;5071400;28;20028;-68
2020/12/11 10:58:41;;;;;;;16.80;11.90;;;3.70;99.90;;;;;;5072129;28;20403;-68
2020/12/11 11:01:10;;;;;;;17.90;13.23;;;3.70;99.90;;;;;;5071221;28;20032;-69
2020/12/11 11:03:36;;;;;;;19.48;12.73;;;3.70;99.90;;;;;;5071826;28;20017;-69
2020/12/11 11:06:52;;;;;;;18.83;13.38;;;3.70;99.90;;;;;;5072374;28;20028;-68
2020/12/11 11:11:36;;;;;;;19.70;12.27;;;3.70;99.90;;;;;;5071614;28;20031;-69
2020/12/11 11:17:46;;;;;;;;;;;3.80;99.90;;;;;;5071939;28;20491;-69
2020/12/11 11:20:02;;;;;;;18.58;11.73;;;3.70;99.90;;;;;;5060333;28;19922;-68
2020/12/11 11:22:40;;;;;;;20.95;13.40;;;3.80;99.90;;;;;;5070099;28;20029;-68
2020/12/11 11:27:56;;;;;;;19.05;12.73;;;3.80;99.90;;;;;;5072549;28;20044;-69
2020/12/11 11:30:23;;;;;;;18.45;12.05;;;3.80;99.90;;;;;;5072222;28;20031;-67
2020/12/11 11:32:50;;;;;;;17.52;12.52;;;3.80;99.90;;;;;;5073428;28;20025;-68
2020/12/11 11:35:16;;;;;;;17.80;12.20;;;3.90;99.90;;;;;;5071514;28;20025;-67
2020/12/11 11:37:42;;;;;;;19.95;13.98;;;3.90;99.90;;;;;;5067279;28;20108;-68
2020/12/11 11:40:08;;;;;;;19.95;13.15;;;3.90;99.90;;;;;;5071601;28;20119;-67
2020/12/11 11:42:33;;;;;;;18.33;12.27;;;3.90;99.90;;;;;;5071050;28;20066;-67
2020/12/11 11:45:01;;;;;;;16.63;12.05;;;3.90;99.90;;;;;;5071103;28;20043;-68
2020/12/11 11:47:28;;;;;;;18.20;11.95;;;3.90;99.90;;;;;;5071171;28;20091;-68
2020/12/11 11:54:50;;;;;;;18.52;11.60;;;4.10;99.90;;;;;;5071460;28;20527;-68
2020/12/11 11:57:15;;;;;;;18.35;12.63;;;4.10;99.90;;;;;;5084439;28;20069;-68
2020/12/11 11:59:42;;;;;;;17.92;12.00;;;4.10;99.90;;;;;;5075107;28;20028;-68
2020/12/11 12:02:08;;;;;;;18.75;13.07;;;4.10;99.90;;;;;;5069493;28;20021;-68
2020/12/11 12:04:33;;;;;;;18.27;12.80;;;4.20;99.90;;;;;;5070120;28;20534;-69
2020/12/11 12:06:59;;;;;;;18.00;12.38;;;4.10;99.90;;;;;;5069542;28;20431;-69
2020/12/11 12:09:25;;;;;;;22.15;13.57;;;4.20;99.90;;;;;;5069183;28;20047;-68
2020/12/11 12:11:50;;;;;;;20.80;13.25;;;4.20;99.90;;;;;;5068902;28;20036;-69
2020/12/11 12:14:16;;;;;;;19.75;13.45;;;4.10;99.90;;;;;;5068923;28;20043;-68
2020/12/11 12:16:43;;;;;;;18.23;12.98;;;4.20;99.90;;;;;;5069459;28;20029;-68
2020/12/11 12:19:13;;;;;;;19.80;12.80;;;4.20;99.90;;;;;;5069495;28;20025;-70
2020/12/11 12:22:25;;;;;;;19.80;13.57;;;4.30;99.90;;;;;;5087456;28;20127;-67
2020/12/11 12:30:02;;;;;;;19.88;13.30;;;4.40;99.90;;;;;;5085584;28;20016;-69
2020/12/11 12:32:32;;;;;;;19.33;12.32;;;4.40;99.90;;;;;;5086956;28;20036;-69
2020/12/11 12:35:01;;;;;;;19.40;13.45;;;4.40;99.90;;;;;;5089017;28;20032;-69
2020/12/11 12:37:32;;;;;;;18.42;12.80;;;4.50;99.90;;;;;;5088255;28;20024;-68
2020/12/11 12:45:10;;;;;;;16.77;13.25;;;4.50;99.90;;;;;;5087726;28;20028;-68
2020/12/11 12:47:38;;;;;;;23.05;13.05;;;4.60;99.90;;;;;;5084669;28;20034;-68
2020/12/11 12:50:04;;;;;;;15.43;11.82;;;4.50;99.90;;;;;;5082894;28;20020;-68
2020/12/11 12:52:30;;;;;;;17.80;13.18;;;4.50;99.90;;;;;;5077995;28;20025;-67
2020/12/11 12:54:55;;;;;;;17.23;12.25;;;4.50;99.90;;;;;;5076315;28;20431;-68
2020/12/11 12:57:27;;;;;;;17.90;12.32;;;4.50;99.90;;;;;;5090175;28;20070;-68
2020/12/11 13:05:09;;;;;;;18.77;11.35;;;4.50;99.90;;;;;;5092282;28;20063;-68
2020/12/11 13:07:36;;;;;;;19.02;12.73;;;4.50;99.90;;;;;;5089649;28;20025;-68
2020/12/11 13:10:04;;;;;;;15.88;12.82;;;4.40;99.90;;;;;;5087064;28;20442;-68
2020/12/11 13:12:30;;;;;;;18.70;12.35;;;4.50;99.90;;;;;;5080898;28;20361;-68
2020/12/11 13:14:55;;;;;;;17.60;13.18;;;4.50;99.90;;;;;;5087612;28;20089;-68
2020/12/11 13:17:21;;;;;;;17.33;12.98;;;4.50;99.90;;;;;;5090460;28;20020;-68